Terminal Aerodrome Forecast
Issued by NWS Shreveport, LA

Home | Current Version | Previous Version | Text Only | Print | Product List | Glossary On
Versions: 1 2 3 4 5 6 7 8 9 10 11 12 13 14 15
831
FTUS44 KSHV 311156
TAFMLU
TAF
KMLU 311156Z 3112/0112 VRB03KT P6SM SCT050 BKN150
      TEMPO 3112/3114 4SM BR BKN150
     FM311500 18004KT P6SM SCT050 BKN150 BKN250
     FM311800 20004KT P6SM BKN250
     FM011000 00000KT 5SM BR SCT035 BKN150=

USA.gov is the U.S. government's official web portal to all federal, state and local government web resources and services.